createdAt,value
2023-04-27T00:02:42.589Z,0.95
2023-04-27T00:08:04.916Z,1.15
2023-04-27T00:13:27.420Z,0.73
2023-04-27T00:18:49.328Z,0.73
2023-04-27T00:24:11.199Z,0.82
2023-04-27T00:29:33.032Z,0.75
2023-04-27T00:34:54.846Z,0.80
2023-04-27T00:40:16.999Z,0.80
2023-04-27T00:45:43.612Z,0.90
2023-04-27T00:51:06.260Z,0.90
2023-04-27T00:56:28.112Z,0.90
2023-04-27T01:01:50.199Z,0.50
2023-04-27T01:07:12.224Z,0.70
2023-04-27T01:12:34.104Z,0.80
2023-04-27T01:18:00.116Z,1.00
2023-04-27T01:23:22.141Z,0.50
2023-04-27T01:28:43.953Z,0.50
2023-04-27T01:34:06.404Z,0.63
2023-04-27T01:39:28.257Z,0.57
2023-04-27T01:44:50.067Z,0.60
2023-04-27T01:50:11.830Z,0.60
2023-04-27T01:55:33.734Z,0.68
2023-04-27T02:00:55.681Z,0.60
2023-04-27T02:06:17.518Z,0.60
2023-04-27T02:11:39.619Z,0.60
2023-04-27T02:17:01.437Z,0.70
2023-04-27T02:22:23.512Z,0.77
2023-04-27T02:27:45.330Z,1.05
2023-04-27T02:33:07.780Z,0.80
2023-04-27T02:38:30.386Z,0.68
2023-04-27T02:43:52.350Z,0.85
2023-04-27T02:49:14.650Z,0.77
2023-04-27T02:54:36.943Z,0.70
2023-04-27T02:59:58.777Z,0.90
2023-04-27T03:05:20.621Z,0.77
2023-04-27T03:10:42.481Z,0.70
2023-04-27T03:16:04.425Z,0.60
2023-04-27T03:21:27.198Z,1.00
2023-04-27T03:26:49.057Z,0.70
2023-04-27T03:32:10.944Z,0.70
2023-04-27T03:37:33.102Z,0.63
2023-04-27T03:42:54.868Z,0.60
2023-04-27T03:48:17.213Z,0.60
2023-04-27T03:53:39.052Z,0.60
2023-04-27T03:59:00.997Z,0.70
2023-04-27T04:04:23.036Z,0.73
2023-04-27T04:09:44.856Z,0.90
2023-04-27T04:15:08.092Z,0.70
2023-04-27T04:20:29.889Z,0.88
2023-04-27T04:25:51.842Z,0.70
2023-04-27T04:31:15.228Z,0.73
2023-04-27T04:36:37.073Z,0.80
2023-04-27T04:41:59.020Z,0.90
2023-04-27T04:47:20.792Z,0.85
2023-04-27T04:52:42.657Z,0.80
2023-04-27T04:58:04.445Z,0.75
2023-04-27T05:03:26.483Z,0.70
2023-04-27T05:08:48.552Z,0.60
2023-04-27T05:14:10.350Z,0.50
2023-04-27T05:19:32.505Z,0.57
2023-04-27T05:24:54.389Z,0.77
2023-04-27T05:30:16.164Z,0.90
2023-04-27T05:35:38.014Z,1.27
2023-04-27T05:41:00.341Z,0.98
2023-04-27T05:46:22.378Z,1.30
2023-04-27T05:51:44.710Z,1.00
2023-04-27T05:57:06.579Z,1.02
2023-04-27T06:02:28.582Z,1.17
2023-04-27T06:07:50.791Z,1.35
2023-04-27T06:13:12.553Z,1.20
2023-04-27T06:18:34.463Z,1.10
2023-04-27T06:23:56.317Z,1.23
2023-04-27T06:29:18.330Z,1.27
2023-04-27T06:34:40.171Z,1.40
2023-04-27T06:40:02.079Z,1.75
2023-04-27T06:45:24.276Z,1.70
2023-04-27T06:50:47.479Z,1.48
2023-04-27T06:56:11.927Z,1.67
2023-04-27T07:01:33.901Z,1.60
2023-04-27T07:06:56.364Z,1.58
2023-04-27T07:12:18.206Z,1.45
2023-04-27T07:17:40.129Z,1.80
2023-04-27T07:23:02.038Z,2.00
2023-04-27T07:28:23.867Z,2.17
2023-04-27T07:33:46.744Z,2.13
2023-04-27T07:39:08.537Z,1.90
2023-04-27T07:44:30.862Z,1.73
2023-04-27T07:49:53.337Z,1.67
2023-04-27T07:55:15.125Z,1.60
2023-04-27T08:00:37.623Z,1.50
2023-04-27T08:05:59.786Z,1.80
2023-04-27T08:11:22.819Z,1.42
2023-04-27T08:16:44.999Z,2.03
2023-04-27T08:22:07.048Z,2.45
2023-04-27T08:27:28.945Z,2.05
2023-04-27T08:32:50.809Z,2.28
2023-04-27T08:38:12.704Z,2.63
2023-04-27T08:43:36.311Z,2.33
2023-04-27T08:48:58.171Z,2.05
2023-04-27T08:54:21.001Z,2.00
2023-04-27T08:59:45.490Z,2.03
2023-04-27T09:05:16.160Z,2.28
2023-04-27T09:10:50.327Z,1.60
2023-04-27T09:16:15.343Z,1.80
2023-04-27T09:21:37.275Z,1.80
2023-04-27T09:27:00.657Z,1.60
2023-04-27T09:32:22.876Z,1.58
2023-04-27T09:37:45.029Z,1.60
2023-04-27T09:43:07.875Z,1.65
2023-04-27T09:48:29.954Z,1.95
2023-04-27T09:53:58.953Z,1.65
2023-04-27T09:59:55.767Z,1.40
2023-04-27T10:05:54.989Z,1.65
2023-04-27T10:11:19.766Z,1.58
2023-04-27T10:16:55.816Z,1.80
2023-04-27T10:27:41.398Z,2.15
2023-04-27T10:33:11.156Z,2.47
2023-04-27T10:38:33.374Z,2.50
2023-04-27T10:43:55.336Z,1.80
2023-04-27T10:49:17.165Z,1.90
2023-04-27T10:54:39.996Z,2.00
2023-04-27T11:00:01.909Z,1.70
2023-04-27T11:05:25.674Z,1.65
2023-04-27T11:10:50.825Z,1.30
2023-04-27T11:16:12.832Z,1.38
2023-04-27T11:21:34.683Z,1.70
2023-04-27T11:26:56.495Z,1.20
2023-04-27T11:32:23.128Z,1.10
2023-04-27T11:37:45.117Z,1.20
2023-04-27T11:43:07.152Z,1.55
2023-04-27T11:48:29.662Z,1.20
2023-04-27T11:53:52.453Z,1.20
2023-04-27T11:59:21.988Z,0.93
2023-04-27T12:04:43.958Z,1.40
2023-04-27T12:10:08.138Z,1.10
2023-04-27T12:15:30.005Z,0.90
2023-04-27T12:20:52.237Z,1.30
2023-04-27T12:26:15.129Z,1.02
2023-04-27T12:31:37.421Z,0.93
2023-04-27T12:36:59.380Z,1.30
2023-04-27T12:42:24.420Z,1.10
2023-04-27T12:47:58.114Z,0.98
2023-04-27T12:53:24.228Z,1.20
2023-04-27T12:58:46.604Z,1.02
2023-04-27T13:04:09.391Z,0.98
2023-04-27T13:09:31.447Z,0.90
2023-04-27T13:14:53.275Z,0.77
2023-04-27T13:20:15.752Z,0.82
2023-04-27T13:25:37.766Z,0.70
2023-04-27T13:31:00.477Z,0.90
2023-04-27T13:36:22.645Z,1.05
2023-04-27T13:41:44.482Z,0.90
2023-04-27T13:47:07.108Z,1.00
2023-04-27T13:52:29.805Z,0.88
2023-04-27T13:57:51.624Z,1.13
2023-04-27T14:03:13.568Z,1.10
2023-04-27T14:08:35.556Z,1.20
2023-04-27T14:13:58.230Z,1.20
2023-04-27T14:19:20.905Z,1.30
2023-04-27T14:24:42.788Z,1.10
2023-04-27T14:30:05.555Z,1.13
2023-04-27T14:35:28.162Z,1.15
2023-04-27T14:40:49.946Z,1.05
2023-04-27T14:46:20.470Z,1.17
2023-04-27T14:51:43.673Z,1.17
2023-04-27T14:57:06.092Z,0.88
2023-04-27T15:02:28.027Z,1.08
2023-04-27T15:07:49.881Z,1.00
2023-04-27T15:13:12.140Z,1.27
2023-04-27T15:18:34.371Z,1.13
2023-04-27T15:23:56.229Z,1.55
2023-04-27T15:29:17.977Z,1.10
2023-04-27T15:34:42.825Z,1.20
2023-04-27T15:40:07.674Z,1.20
2023-04-27T15:45:29.937Z,1.00
2023-04-27T15:50:51.815Z,1.20
2023-04-27T15:56:13.645Z,0.85
2023-04-27T16:01:35.703Z,0.80
2023-04-27T16:06:57.806Z,0.82
2023-04-27T16:12:19.700Z,0.90
2023-04-27T16:17:41.897Z,1.35
2023-04-27T16:23:03.823Z,0.80
2023-04-27T16:28:25.744Z,0.80
2023-04-27T16:33:48.504Z,1.00
2023-04-27T16:39:11.074Z,0.70
2023-04-27T16:44:32.965Z,0.90
2023-04-27T16:49:54.779Z,1.20
2023-04-27T16:55:16.752Z,1.33
2023-04-27T17:00:40.438Z,0.90
2023-04-27T17:06:03.258Z,0.90
2023-04-27T17:11:25.194Z,1.02
2023-04-27T17:16:47.031Z,0.90
2023-04-27T17:22:11.547Z,0.98
2023-04-27T17:27:33.385Z,0.80
2023-04-27T17:32:55.296Z,0.60
2023-04-27T17:38:17.332Z,1.50
2023-04-27T17:43:39.181Z,1.15
2023-04-27T17:49:01.318Z,1.08
2023-04-27T17:54:23.159Z,1.95
2023-04-27T17:59:45.715Z,2.00
2023-04-27T18:05:08.115Z,2.20
2023-04-27T18:10:29.909Z,2.70
2023-04-27T18:15:51.740Z,2.05
2023-04-27T18:21:13.488Z,1.77
2023-04-27T18:26:37.038Z,1.63
2023-04-27T18:32:01.891Z,1.70
2023-04-27T18:37:23.749Z,1.33
2023-04-27T18:42:45.646Z,2.15
2023-04-27T18:48:07.461Z,2.03
2023-04-27T18:53:29.322Z,1.95
2023-04-27T18:58:51.365Z,1.95
2023-04-27T19:04:13.449Z,2.20
2023-04-27T19:09:35.459Z,2.60
2023-04-27T19:14:57.277Z,1.90
2023-04-27T19:20:19.382Z,2.15
2023-04-27T19:25:41.341Z,1.75
2023-04-27T19:31:03.312Z,1.40
2023-04-27T19:36:26.362Z,2.08
2023-04-27T19:41:48.355Z,1.63
2023-04-27T19:47:13.152Z,1.63
2023-04-27T19:52:34.975Z,1.37
2023-04-27T19:57:56.990Z,2.08
2023-04-27T20:03:19.092Z,1.67
2023-04-27T20:08:41.147Z,1.63
2023-04-27T20:14:03.046Z,1.10
2023-04-27T20:19:25.338Z,1.55
2023-04-27T20:24:47.350Z,1.27
2023-04-27T20:30:09.746Z,2.58
2023-04-27T20:35:31.623Z,1.73
2023-04-27T20:40:53.709Z,2.20
2023-04-27T20:46:15.578Z,2.55
2023-04-27T20:51:37.429Z,3.95
2023-04-27T20:57:02.341Z,3.17
2023-04-27T21:02:24.327Z,3.40
2023-04-27T21:07:46.366Z,3.50
2023-04-27T21:13:08.567Z,3.72
2023-04-27T21:18:30.992Z,3.50
2023-04-27T21:24:04.169Z,3.03
2023-04-27T21:29:28.804Z,2.95
2023-04-27T21:34:50.691Z,2.90
2023-04-27T21:40:12.748Z,3.10
2023-04-27T21:45:34.635Z,3.35
2023-04-27T21:50:56.394Z,2.65
2023-04-27T21:56:18.165Z,2.22
2023-04-27T22:01:40.057Z,2.75
2023-04-27T22:07:02.661Z,2.35
2023-04-27T22:12:24.635Z,2.25
2023-04-27T22:17:46.475Z,1.90
2023-04-27T22:23:09.590Z,2.40
2023-04-27T22:28:31.352Z,2.28
2023-04-27T22:33:53.197Z,2.13
2023-04-27T22:39:15.176Z,1.60
2023-04-27T22:44:36.924Z,1.90
2023-04-27T22:49:59.368Z,1.85
2023-04-27T22:55:21.417Z,2.28
2023-04-27T23:00:43.182Z,1.95
2023-04-27T23:06:05.634Z,3.03
2023-04-27T23:11:28.066Z,2.10
2023-04-27T23:16:50.081Z,2.60
2023-04-27T23:22:11.853Z,2.20
2023-04-27T23:27:33.664Z,2.50
2023-04-27T23:32:55.483Z,2.05
2023-04-27T23:38:17.481Z,2.10
2023-04-27T23:43:39.861Z,2.28
2023-04-27T23:49:01.878Z,2.97
2023-04-27T23:54:23.759Z,1.95
2023-04-27T23:59:45.962Z,1.83
